createdAt,value
2022-10-21T00:01:41.232Z,97603.44
2022-10-21T00:04:07.952Z,97601.63
2022-10-21T00:06:34.797Z,97592.88
2022-10-21T00:09:01.473Z,97590.00
2022-10-21T00:11:28.275Z,97596.16
2022-10-21T00:13:55.118Z,97598.16
2022-10-21T00:16:21.838Z,97606.16
2022-10-21T00:18:49.001Z,97613.44
2022-10-21T00:21:18.946Z,97620.72
2022-10-21T00:23:46.182Z,97630.38
2022-10-21T00:26:14.098Z,97635.28
2022-10-21T00:28:41.310Z,97648.91
2022-10-21T00:31:12.421Z,97658.53
2022-10-21T00:33:39.201Z,97667.25
2022-10-21T00:36:07.732Z,97666.91
2022-10-21T00:38:35.587Z,97667.97
2022-10-21T00:41:02.898Z,97678.34
2022-10-21T00:43:29.760Z,97695.09
2022-10-21T00:46:02.178Z,97696.91
2022-10-21T00:48:36.367Z,97696.00
2022-10-21T00:51:07.668Z,97710.19
2022-10-21T00:53:36.756Z,97715.81
2022-10-21T00:56:14.150Z,97719.28
2022-10-21T00:58:45.782Z,97711.09
2022-10-21T01:01:15.199Z,97715.09
2022-10-21T01:03:43.398Z,97723.09
2022-10-21T01:06:12.719Z,97708.75
2022-10-21T01:08:39.868Z,97709.66
2022-10-21T01:11:13.394Z,97719.47
2022-10-21T01:14:09.443Z,97710.19
2022-10-21T01:17:20.787Z,97712.38
2022-10-21T01:20:18.967Z,97712.91
2022-10-21T01:23:31.751Z,97718.75
2022-10-21T01:26:34.443Z,97717.63
2022-10-21T01:29:27.379Z,97726.16
2022-10-21T01:32:07.372Z,97721.84
2022-10-21T01:34:50.344Z,97718.34
2022-10-21T01:37:25.615Z,97716.91
2022-10-21T01:39:57.238Z,97727.25
2022-10-21T01:42:58.158Z,97726.34
2022-10-21T01:46:00.115Z,97729.94
2022-10-21T01:48:34.394Z,97725.63
2022-10-21T01:51:07.137Z,97723.06
2022-10-21T01:53:41.485Z,97731.81
2022-10-21T01:56:11.202Z,97731.97
2022-10-21T01:58:42.373Z,97733.25
2022-10-21T02:01:13.176Z,97724.53
2022-10-21T02:03:42.671Z,97718.19
2022-10-21T02:06:09.600Z,97723.25
2022-10-21T02:08:36.338Z,97714.31
2022-10-21T02:11:07.134Z,97721.22
2022-10-21T02:13:40.466Z,97711.78
2022-10-21T02:16:10.062Z,97712.13
2022-10-21T02:18:36.855Z,97715.94
2022-10-21T02:21:08.642Z,97712.84
2022-10-21T02:23:54.004Z,97710.13
2022-10-21T02:26:26.041Z,97715.38
2022-10-21T02:28:55.067Z,97705.22
2022-10-21T02:31:57.942Z,97716.28
2022-10-21T02:34:55.584Z,97713.56
2022-10-21T02:38:01.228Z,97712.66
2022-10-21T02:40:37.427Z,97715.06
2022-10-21T02:43:09.537Z,97721.22
2022-10-21T02:45:36.335Z,97723.41
2022-10-21T02:48:04.088Z,97716.66
2022-10-21T02:50:31.253Z,97711.22
2022-10-21T02:52:58.098Z,97707.41
2022-10-21T02:55:25.105Z,97705.25
2022-10-21T02:57:51.707Z,97707.41
2022-10-21T03:00:18.416Z,97696.16
2022-10-21T03:02:44.999Z,97702.31
2022-10-21T03:05:13.143Z,97695.41
2022-10-21T03:07:41.286Z,97679.41
2022-10-21T03:10:08.804Z,97669.78
2022-10-21T03:12:35.559Z,97676.84
2022-10-21T03:15:02.334Z,97677.59
2022-10-21T03:17:29.114Z,97681.44
2022-10-21T03:19:56.230Z,97678.72
2022-10-21T03:22:22.824Z,97669.06
2022-10-21T03:24:49.395Z,97666.53
2022-10-21T03:27:16.034Z,97675.78
2022-10-21T03:29:42.735Z,97663.25
2022-10-21T03:32:09.323Z,97666.91
2022-10-21T03:34:35.935Z,97649.84
2022-10-21T03:37:02.497Z,97636.25
2022-10-21T03:39:29.052Z,97630.97
2022-10-21T03:41:56.753Z,97616.97
2022-10-21T03:44:23.605Z,97616.44
2022-10-21T03:46:50.150Z,97614.06
2022-10-21T03:49:21.456Z,97603.34
2022-10-21T03:51:48.480Z,97604.78
2022-10-21T03:54:15.347Z,97609.13
2022-10-21T03:56:42.441Z,97606.78
2022-10-21T03:59:09.775Z,97601.88
2022-10-21T04:01:36.682Z,97610.97
2022-10-21T04:04:03.701Z,97614.41
2022-10-21T04:06:30.455Z,97621.09
2022-10-21T04:08:57.331Z,97626.75
2022-10-21T04:11:24.175Z,97623.13
2022-10-21T04:13:50.794Z,97620.94
2022-10-21T04:16:20.139Z,97624.94
2022-10-21T04:18:46.943Z,97632.97
2022-10-21T04:21:14.402Z,97615.16
2022-10-21T04:23:41.416Z,97613.16
2022-10-21T04:26:08.282Z,97620.25
2022-10-21T04:28:35.162Z,97617.88
2022-10-21T04:31:02.322Z,97622.59
2022-10-21T04:33:29.087Z,97611.53
2022-10-21T04:35:56.005Z,97600.25
2022-10-21T04:38:23.391Z,97591.00
2022-10-21T04:41:01.273Z,97582.63
2022-10-21T04:43:28.607Z,97580.25
2022-10-21T04:45:55.536Z,97568.28
2022-10-21T04:48:22.727Z,97573.72
2022-10-21T04:50:53.497Z,97565.72
2022-10-21T04:53:21.238Z,97570.09
2022-10-21T04:55:54.021Z,97568.81
2022-10-21T04:58:22.386Z,97576.09
2022-10-21T05:00:50.649Z,97578.63
2022-10-21T05:03:18.304Z,97580.28
2022-10-21T05:05:45.087Z,97565.94
2022-10-21T05:08:11.933Z,97565.59
2022-10-21T05:10:38.760Z,97571.56
2022-10-21T05:13:06.171Z,97565.59
2022-10-21T05:15:33.893Z,97570.09
2022-10-21T05:18:00.795Z,97561.94
2022-10-21T05:20:27.478Z,97564.09
2022-10-21T05:22:54.092Z,97560.47
2022-10-21T05:25:21.954Z,97567.56
2022-10-21T05:27:49.511Z,97565.38
2022-10-21T05:30:16.264Z,97555.94
2022-10-21T05:32:43.182Z,97563.94
2022-10-21T05:35:12.016Z,97554.50
2022-10-21T05:37:38.791Z,97554.66
2022-10-21T05:40:06.412Z,97546.50
2022-10-21T05:42:33.047Z,97549.41
2022-10-21T05:44:59.825Z,97541.59
2022-10-21T05:47:27.816Z,97547.59
2022-10-21T05:49:54.434Z,97543.94
2022-10-21T05:52:21.013Z,97546.13
2022-10-21T05:54:47.756Z,97541.78
2022-10-21T05:57:15.099Z,97540.31
2022-10-21T05:59:41.886Z,97540.66
2022-10-21T06:02:10.248Z,97539.75
2022-10-21T06:04:38.730Z,97543.91
2022-10-21T06:07:05.691Z,97538.47
2022-10-21T06:09:32.702Z,97535.91
2022-10-21T06:11:59.488Z,97537.38
2022-10-21T06:14:26.851Z,97535.56
2022-10-21T06:16:53.455Z,97542.63
2022-10-21T06:19:20.070Z,97541.53
2022-10-21T06:21:47.945Z,97537.34
2022-10-21T06:24:15.011Z,97542.41
2022-10-21T06:26:41.931Z,97543.72
2022-10-21T06:29:08.523Z,97528.78
2022-10-21T06:31:35.163Z,97528.06
2022-10-21T06:34:01.994Z,97523.34
2022-10-21T06:36:30.520Z,97531.50
2022-10-21T06:38:58.417Z,97527.69
2022-10-21T06:41:25.059Z,97529.31
2022-10-21T06:43:51.663Z,97526.94
2022-10-21T06:46:18.669Z,97532.22
2022-10-21T06:48:45.409Z,97518.72
2022-10-21T06:51:23.395Z,97528.53
2022-10-21T06:53:55.245Z,97522.19
2022-10-21T06:56:23.005Z,97517.44
2022-10-21T06:58:50.809Z,97520.31
2022-10-21T07:01:34.673Z,97528.84
2022-10-21T07:04:09.770Z,97533.06
2022-10-21T07:06:36.871Z,97535.38
2022-10-21T07:09:05.386Z,97519.16
2022-10-21T07:11:32.092Z,97524.56
2022-10-21T07:14:00.594Z,97523.25
2022-10-21T07:16:30.864Z,97524.72
2022-10-21T07:18:58.062Z,97524.72
2022-10-21T07:21:28.065Z,97523.25
2022-10-21T07:23:59.074Z,97521.31
2022-10-21T07:26:27.415Z,97532.56
2022-10-21T07:28:55.847Z,97530.34
2022-10-21T07:31:22.571Z,97529.72
2022-10-21T07:33:49.657Z,97527.66
2022-10-21T07:36:19.683Z,97524.75
2022-10-21T07:38:47.936Z,97521.94
2022-10-21T07:41:20.083Z,97516.66
2022-10-21T07:43:46.916Z,97509.53
2022-10-21T07:46:14.025Z,97512.97
2022-10-21T07:48:40.615Z,97501.41
2022-10-21T07:51:10.523Z,97506.63
2022-10-21T07:53:37.850Z,97501.66
2022-10-21T07:56:11.122Z,97506.03
2022-10-21T07:58:38.499Z,97512.38
2022-10-21T08:01:07.666Z,97499.66
2022-10-21T08:03:34.848Z,97491.25
2022-10-21T08:06:02.021Z,97475.19
2022-10-21T08:08:29.184Z,97475.19
2022-10-21T08:10:56.131Z,97478.31
2022-10-21T08:13:23.104Z,97471.88
2022-10-21T08:15:53.183Z,97465.25
2022-10-21T08:18:21.315Z,97461.50
2022-10-21T08:20:49.477Z,97466.50
2022-10-21T08:23:21.026Z,97457.34
2022-10-21T08:25:49.846Z,97444.72
2022-10-21T08:28:16.934Z,97427.03
2022-10-21T08:30:44.660Z,97425.97
2022-10-21T08:33:12.630Z,97430.56
2022-10-21T08:35:40.108Z,97425.09
2022-10-21T08:40:44.994Z,97395.50
2022-10-21T08:43:23.506Z,97394.13
2022-10-21T08:46:03.390Z,97398.13
2022-10-21T08:48:37.204Z,97399.72
2022-10-21T08:51:07.229Z,97395.53
2022-10-21T08:53:41.453Z,97402.94
2022-10-21T08:56:18.716Z,97405.19
2022-10-21T08:58:51.247Z,97404.28
2022-10-21T09:01:43.168Z,97404.00
2022-10-21T09:04:27.351Z,97405.72
2022-10-21T09:07:38.010Z,97398.53
2022-10-21T09:10:30.818Z,97395.69
2022-10-21T09:13:20.491Z,97387.22
2022-10-21T09:16:23.732Z,97380.19
2022-10-21T09:19:19.910Z,97374.91
2022-10-21T09:22:34.910Z,97374.19
2022-10-21T09:25:31.448Z,97372.88
2022-10-21T09:27:59.973Z,97367.53
2022-10-21T09:30:27.098Z,97356.56
2022-10-21T09:32:59.773Z,97353.41
2022-10-21T09:35:44.061Z,97341.03
2022-10-21T09:38:39.384Z,97344.34
2022-10-21T09:43:50.270Z,97346.81
2022-10-21T09:46:17.602Z,97346.25
2022-10-21T09:49:16.348Z,97348.91
2022-10-21T09:51:39.067Z,97347.34
2022-10-21T09:54:11.796Z,97343.84
2022-10-21T09:57:24.141Z,97344.84
2022-10-21T10:00:00.409Z,97340.97
2022-10-21T10:02:47.717Z,97340.69
2022-10-21T10:05:33.839Z,97333.91
2022-10-21T10:08:00.573Z,97330.03
2022-10-21T10:10:34.277Z,97318.06
2022-10-21T10:13:01.125Z,97318.34
2022-10-21T10:15:36.048Z,97323.38
2022-10-21T10:18:03.587Z,97317.03
2022-10-21T10:20:30.391Z,97320.94
2022-10-21T10:23:18.646Z,97310.28
2022-10-21T10:25:51.035Z,97296.41
2022-10-21T10:28:19.828Z,97304.06
2022-10-21T10:30:52.575Z,97302.91
2022-10-21T10:33:23.260Z,97298.44
2022-10-21T10:36:03.317Z,97300.91
2022-10-21T10:38:35.343Z,97299.16
2022-10-21T10:41:04.609Z,97294.38
2022-10-21T10:43:33.837Z,97296.97
2022-10-21T10:46:07.362Z,97293.66
2022-10-21T10:48:53.499Z,97295.84
2022-10-21T10:51:35.093Z,97299.31
2022-10-21T10:54:28.488Z,97296.28
2022-10-21T10:57:05.630Z,97285.88
2022-10-21T11:00:01.312Z,97294.13
2022-10-21T11:03:10.024Z,97281.56
2022-10-21T11:05:51.067Z,97279.81
2022-10-21T11:08:37.131Z,97274.78
2022-10-21T11:11:17.891Z,97265.97
2022-10-21T11:13:44.598Z,97266.09
2022-10-21T11:16:59.524Z,97269.09
2022-10-21T11:19:54.920Z,97263.47
2022-10-21T11:23:09.164Z,97261.13
2022-10-21T11:25:47.485Z,97265.59
2022-10-21T11:28:30.381Z,97259.66
2022-10-21T11:34:23.834Z,97265.25
2022-10-21T11:37:10.517Z,97259.34
2022-10-21T11:40:17.551Z,97262.34
2022-10-21T11:42:48.464Z,97262.50
2022-10-21T11:45:38.146Z,97268.50
2022-10-21T11:48:52.630Z,97273.81
2022-10-21T11:52:04.863Z,97281.94
2022-10-21T11:55:17.644Z,97280.19
2022-10-21T11:58:22.766Z,97291.41
2022-10-21T12:01:05.657Z,97290.56
2022-10-21T12:04:11.397Z,97287.63
2022-10-21T12:07:11.398Z,97272.88
2022-10-21T12:10:04.207Z,97275.94
2022-10-21T12:12:36.806Z,97283.59
2022-10-21T12:15:11.976Z,97283.97
2022-10-21T12:17:38.984Z,97283.97
2022-10-21T12:20:27.188Z,97281.78
2022-10-21T12:23:01.104Z,97282.06
2022-10-21T12:25:40.732Z,97295.56
2022-10-21T12:28:38.879Z,97307.88
2022-10-21T12:31:45.499Z,97302.44
2022-10-21T12:34:13.442Z,97303.75
2022-10-21T12:36:46.749Z,97301.34
2022-10-21T12:39:37.957Z,97310.13
2022-10-21T12:42:18.541Z,97328.94
2022-10-21T12:44:47.762Z,97329.53
2022-10-21T12:47:45.090Z,97335.03
2022-10-21T12:50:34.434Z,97335.03
2022-10-21T12:53:21.289Z,97336.78
2022-10-21T12:55:51.727Z,97337.34
2022-10-21T12:58:41.357Z,97342.81
2022-10-21T13:01:45.255Z,97345.41
2022-10-21T13:04:32.053Z,97366.75
2022-10-21T13:07:06.471Z,97383.63
2022-10-21T13:09:50.874Z,97396.34
2022-10-21T13:12:28.565Z,97393.47
2022-10-21T13:15:22.174Z,97408.03
2022-10-21T13:17:54.648Z,97415.00
2022-10-21T13:20:41.331Z,97428.25
2022-10-21T13:23:32.148Z,97431.72
2022-10-21T13:26:06.690Z,97429.25
2022-10-21T13:28:34.273Z,97438.22
2022-10-21T13:31:01.255Z,97451.50
2022-10-21T13:33:33.329Z,97447.16
2022-10-21T13:36:04.094Z,97446.72
2022-10-21T13:38:33.507Z,97466.94
2022-10-21T13:41:22.931Z,97466.66
2022-10-21T13:43:58.973Z,97478.91
2022-10-21T13:46:39.128Z,97480.66
2022-10-21T13:49:32.560Z,97484.69
2022-10-21T13:51:59.245Z,97485.56
2022-10-21T13:54:25.995Z,97487.31
2022-10-21T13:56:52.522Z,97484.56
2022-10-21T13:59:25.736Z,97490.16
2022-10-21T14:01:55.014Z,97494.09
2022-10-21T14:04:28.720Z,97513.69
2022-10-21T14:06:58.578Z,97509.78
2022-10-21T14:09:33.778Z,97498.53
2022-10-21T14:12:07.561Z,97508.06
2022-10-21T14:14:38.126Z,97513.69
2022-10-21T14:17:14.688Z,97515.59
2022-10-21T14:19:41.893Z,97514.84
2022-10-21T14:22:10.696Z,97511.38
2022-10-21T14:24:45.313Z,97512.25
2022-10-21T14:27:25.728Z,97518.47
2022-10-21T14:29:52.455Z,97516.00
2022-10-21T14:32:23.534Z,97510.38
2022-10-21T14:35:29.677Z,97520.66
2022-10-21T14:38:16.123Z,97520.66
2022-10-21T14:40:42.784Z,97516.88
2022-10-21T14:43:20.682Z,97515.28
2022-10-21T14:45:50.673Z,97502.72
2022-10-21T14:48:45.262Z,97506.63
2022-10-21T14:51:17.756Z,97506.03
2022-10-21T14:54:04.135Z,97515.72
2022-10-21T14:56:38.536Z,97512.81
2022-10-21T14:59:24.987Z,97517.59
2022-10-21T15:01:52.655Z,97515.56
2022-10-21T15:04:43.623Z,97513.09
2022-10-21T15:07:24.609Z,97520.19
2022-10-21T15:10:23.628Z,97515.25
2022-10-21T15:12:51.649Z,97523.91
2022-10-21T15:15:44.465Z,97523.78
2022-10-21T15:18:43.297Z,97530.69
2022-10-21T15:21:12.485Z,97531.13
2022-10-21T15:23:49.043Z,97531.53
2022-10-21T15:26:40.158Z,97537.16
2022-10-21T15:29:18.854Z,97541.50
2022-10-21T15:31:45.571Z,97541.34
2022-10-21T15:34:14.497Z,97537.16
2022-10-21T15:36:42.177Z,97540.63
2022-10-21T15:39:09.835Z,97534.53
2022-10-21T15:41:37.263Z,97540.28
2022-10-21T15:44:13.791Z,97542.13
2022-10-21T15:46:46.291Z,97551.34
2022-10-21T15:49:22.048Z,97559.75
2022-10-21T15:51:49.719Z,97558.13
2022-10-21T15:54:17.894Z,97557.06
2022-10-21T15:56:46.228Z,97556.22
2022-10-21T15:59:34.191Z,97564.25
2022-10-21T16:02:02.259Z,97570.56
2022-10-21T16:04:28.867Z,97566.09
2022-10-21T16:06:55.523Z,97560.44
2022-10-21T16:09:25.227Z,97570.38
2022-10-21T16:12:01.446Z,97575.38
2022-10-21T16:14:30.824Z,97567.84
2022-10-21T16:16:58.637Z,97566.47
2022-10-21T16:19:25.370Z,97569.47
2022-10-21T16:21:51.972Z,97580.66
2022-10-21T16:24:18.872Z,97584.38
2022-10-21T16:26:48.318Z,97583.81
2022-10-21T16:29:23.132Z,97586.25
2022-10-21T16:31:50.157Z,97586.41
2022-10-21T16:34:17.053Z,97592.13
2022-10-21T16:36:44.006Z,97594.13
2022-10-21T16:39:16.890Z,97587.78
2022-10-21T16:41:43.461Z,97588.03
2022-10-21T16:44:10.551Z,97592.19
2022-10-21T16:46:40.101Z,97592.28
2022-10-21T16:49:20.898Z,97583.75
2022-10-21T16:51:47.470Z,97589.47
2022-10-21T16:54:15.243Z,97574.34
2022-10-21T16:56:41.851Z,97580.41
2022-10-21T16:59:08.551Z,97584.97
2022-10-21T17:01:35.562Z,97592.69
2022-10-21T17:04:02.189Z,97590.53
2022-10-21T17:06:28.969Z,97589.31
2022-10-21T17:08:56.333Z,97588.25
2022-10-21T17:11:34.699Z,97587.53
2022-10-21T17:14:03.228Z,97580.59
2022-10-21T17:16:29.785Z,97578.84
2022-10-21T17:18:56.486Z,97584.31
2022-10-21T17:21:26.514Z,97577.41
2022-10-21T17:23:54.511Z,97580.34
2022-10-21T17:26:21.359Z,97587.34
2022-10-21T17:28:48.198Z,97576.81
2022-10-21T17:31:25.787Z,97588.84
2022-10-21T17:33:55.346Z,97585.25
2022-10-21T17:36:22.139Z,97578.88
2022-10-21T17:38:48.918Z,97574.72
2022-10-21T17:41:17.134Z,97574.00
2022-10-21T17:43:43.779Z,97583.78
2022-10-21T17:46:17.393Z,97596.56
2022-10-21T17:48:44.276Z,97599.31
2022-10-21T17:51:10.871Z,97591.25
2022-10-21T17:53:37.490Z,97602.38
2022-10-21T17:56:06.952Z,97600.94
2022-10-21T17:58:34.663Z,97590.88
2022-10-21T18:01:08.659Z,97589.81
2022-10-21T18:03:35.863Z,97603.88
2022-10-21T18:06:08.477Z,97592.97
2022-10-21T18:08:35.391Z,97594.66
2022-10-21T18:11:02.754Z,97591.19
2022-10-21T18:13:30.658Z,97593.44
2022-10-21T18:16:03.608Z,97594.34
2022-10-21T18:18:30.323Z,97588.03
2022-10-21T18:21:20.025Z,97588.19
2022-10-21T18:23:50.259Z,97595.66
2022-10-21T18:26:20.337Z,97591.28
2022-10-21T18:28:54.485Z,97587.13
2022-10-21T18:31:21.696Z,97583.50
2022-10-21T18:33:49.159Z,97575.09
2022-10-21T18:36:17.426Z,97587.72
2022-10-21T18:38:44.754Z,97584.66
2022-10-21T18:41:20.149Z,97578.66
2022-10-21T18:43:56.489Z,97594.31
2022-10-21T18:46:23.744Z,97589.06
2022-10-21T18:48:50.638Z,97584.56
2022-10-21T18:51:19.120Z,97570.50
2022-10-21T18:53:49.882Z,97574.69
2022-10-21T18:56:20.459Z,97574.13
2022-10-21T18:58:47.122Z,97579.91
2022-10-21T19:01:15.195Z,97574.81
2022-10-21T19:03:42.233Z,97573.84
2022-10-21T19:06:39.525Z,97566.03
2022-10-21T19:09:18.359Z,97565.31
2022-10-21T19:11:45.922Z,97561.88
2022-10-21T19:14:14.673Z,97558.63
2022-10-21T19:16:42.891Z,97564.72
2022-10-21T19:19:09.919Z,97572.34
2022-10-21T19:21:36.967Z,97573.44
2022-10-21T19:24:04.321Z,97569.44
2022-10-21T19:26:32.523Z,97563.97
2022-10-21T19:29:04.828Z,97554.84
2022-10-21T19:31:36.044Z,97566.50
2022-10-21T19:34:04.478Z,97565.19
2022-10-21T19:36:31.051Z,97560.06
2022-10-21T19:38:57.609Z,97554.16
2022-10-21T19:41:24.451Z,97542.13
2022-10-21T19:43:51.836Z,97557.06
2022-10-21T19:46:25.671Z,97530.31
2022-10-21T19:48:52.990Z,97540.69
2022-10-21T19:51:22.558Z,97552.00
2022-10-21T19:53:50.279Z,97556.56
2022-10-21T19:56:20.897Z,97548.75
2022-10-21T19:58:50.737Z,97558.41
2022-10-21T20:01:21.221Z,97559.16
2022-10-21T20:03:49.769Z,97550.63
2022-10-21T20:06:25.806Z,97542.63
2022-10-21T20:08:58.232Z,97555.56
2022-10-21T20:11:25.078Z,97565.19
2022-10-21T20:13:52.230Z,97568.13
2022-10-21T20:16:29.561Z,97568.66
2022-10-21T20:18:57.215Z,97562.41
2022-10-21T20:21:25.075Z,97554.91
2022-10-21T20:23:51.835Z,97561.09
2022-10-21T20:26:19.370Z,97558.91
2022-10-21T20:28:46.313Z,97557.47
2022-10-21T20:31:15.216Z,97544.72
2022-10-21T20:33:47.530Z,97554.53
2022-10-21T20:36:17.871Z,97541.72
2022-10-21T20:38:45.427Z,97541.41
2022-10-21T20:41:15.599Z,97547.97
2022-10-21T20:43:42.694Z,97540.50
2022-10-21T20:46:12.193Z,97536.19
2022-10-21T20:48:48.172Z,97537.63
2022-10-21T20:51:21.059Z,97542.19
2022-10-21T20:54:09.589Z,97542.19
2022-10-21T20:56:38.594Z,97529.44
2022-10-21T20:59:07.069Z,97521.38
2022-10-21T21:01:37.050Z,97513.03
2022-10-21T21:04:08.197Z,97503.94
2022-10-21T21:06:40.098Z,97504.66
2022-10-21T21:09:43.653Z,97497.75
2022-10-21T21:11:54.002Z,97495.75
2022-10-21T21:14:20.810Z,97494.13
2022-10-21T21:16:47.413Z,97488.66
2022-10-21T21:19:14.104Z,97485.78
2022-10-21T21:21:40.943Z,97487.22
2022-10-21T21:24:07.763Z,97492.88
2022-10-21T21:26:36.571Z,97513.66
2022-10-21T21:29:06.208Z,97521.69
2022-10-21T21:31:34.025Z,97528.97
2022-10-21T21:34:00.619Z,97529.53
2022-10-21T21:36:27.348Z,97536.13
2022-10-21T21:38:54.174Z,97540.53
2022-10-21T21:41:23.299Z,97535.06
2022-10-21T21:43:51.260Z,97523.00
2022-10-21T21:46:25.441Z,97511.59
2022-10-21T21:49:05.535Z,97500.28
2022-10-21T21:51:35.265Z,97491.84
2022-10-21T21:54:02.418Z,97491.47
2022-10-21T21:56:29.453Z,97484.31
2022-10-21T21:58:57.852Z,97486.50
2022-10-21T22:01:27.515Z,97490.13
2022-10-21T22:03:55.325Z,97487.94
2022-10-21T22:08:56.344Z,97487.00
2022-10-21T22:11:25.283Z,97472.78
2022-10-21T22:13:52.633Z,97471.66
2022-10-21T22:16:24.393Z,97470.78
2022-10-21T22:18:51.395Z,97464.59
2022-10-21T22:21:18.686Z,97460.97
2022-10-21T22:23:45.661Z,97460.25
2022-10-21T22:26:13.784Z,97451.91
2022-10-21T22:28:40.961Z,97450.75
2022-10-21T22:31:10.982Z,97436.78
2022-10-21T22:33:38.865Z,97432.03
2022-10-21T22:36:06.298Z,97435.31
2022-10-21T22:38:33.565Z,97436.41
2022-10-21T22:41:02.402Z,97424.06
2022-10-21T22:43:29.844Z,97433.22
2022-10-21T22:46:05.338Z,97428.63
2022-10-21T22:48:41.988Z,97415.88
2022-10-21T22:51:08.777Z,97412.22
2022-10-21T22:53:36.609Z,97409.34
2022-10-21T22:56:03.931Z,97412.09
2022-10-21T22:58:30.808Z,97399.63
2022-10-21T23:00:57.685Z,97404.34
2022-10-21T23:03:24.827Z,97403.25
2022-10-21T23:05:51.460Z,97401.38
2022-10-21T23:08:18.613Z,97393.31
2022-10-21T23:10:49.021Z,97388.41
2022-10-21T23:13:15.837Z,97386.00
2022-10-21T23:15:42.565Z,97395.31
2022-10-21T23:18:09.264Z,97407.28
2022-10-21T23:20:35.848Z,97416.19
2022-10-21T23:23:02.473Z,97419.16
2022-10-21T23:25:29.231Z,97420.81
2022-10-21T23:27:55.875Z,97414.97
2022-10-21T23:30:22.951Z,97398.59
2022-10-21T23:32:50.239Z,97396.09
2022-10-21T23:35:17.130Z,97390.47
2022-10-21T23:37:44.048Z,97378.59
2022-10-21T23:40:11.706Z,97378.22
2022-10-21T23:42:42.655Z,97379.47
2022-10-21T23:45:11.240Z,97388.22
2022-10-21T23:47:39.567Z,97389.84
2022-10-21T23:50:07.901Z,97397.78
2022-10-21T23:52:34.753Z,97400.31
2022-10-21T23:55:01.636Z,97408.19
2022-10-21T23:57:28.240Z,97393.09
2022-10-21T23:59:54.785Z,97386.31
